GLO46J SBSP-SBRJ
Flight info
| Callsign | GLO46J |
|---|---|
| Flight time | 0h 37m |
| Altitude | 27000 |
| Route | NIBRU UZ171 KEVUN |
| Aircraft | B737/M-SDE2E3FGHIRWXY/LB1 |
Departure
| Time | 2026-05-05 10:04 |
|---|---|
| Airport | Congonhas–Deputado Freitas Nobre Airport (SBSP) |
Arrival
| Time | 2026-05-05 10:42 |
|---|---|
| Airport | Santos Dumont Airport (SBRJ) |
| Time | Latitude | Longitude | Altitude | Speed | Heading |
|---|---|---|---|---|---|
| 2026-05-05 09:34 | -23.62688 | -46.65838 | 2623 ft | 0 kts | 232° |
| 2026-05-05 09:57 | -23.62686 | -46.65837 | 2623 ft | 2 kts | 232° |
| 2026-05-05 09:58 | -23.62673 | -46.65826 | 2623 ft | 2 kts | 202° |
| 2026-05-05 09:58 | -23.62657 | -46.65823 | 2622 ft | 2 kts | 176° |
| 2026-05-05 09:58 | -23.62641 | -46.65826 | 2622 ft | 2 kts | 162° |
| 2026-05-05 09:58 | -23.62626 | -46.65832 | 2622 ft | 2 kts | 154° |
| 2026-05-05 09:59 | -23.62611 | -46.65841 | 2621 ft | 2 kts | 149° |
| 2026-05-05 09:59 | -23.62599 | -46.65849 | 2621 ft | 1 kts | 147° |
| 2026-05-05 09:59 | -23.62597 | -46.65851 | 2621 ft | 0 kts | 147° |
| 2026-05-05 10:00 | -23.62602 | -46.65848 | 2621 ft | 3 kts | 148° |
| 2026-05-05 10:00 | -23.62640 | -46.65822 | 2606 ft | 10 kts | 148° |
| 2026-05-05 10:01 | -23.62709 | -46.65774 | 2623 ft | 13 kts | 148° |
| 2026-05-05 10:01 | -23.62783 | -46.65723 | 2625 ft | 12 kts | 147° |
| 2026-05-05 10:01 | -23.62845 | -46.65651 | 2627 ft | 15 kts | 120° |
| 2026-05-05 10:01 | -23.62911 | -46.65574 | 2628 ft | 14 kts | 153° |
| 2026-05-05 10:02 | -23.63001 | -46.65534 | 2630 ft | 15 kts | 163° |
| 2026-05-05 10:02 | -23.63105 | -46.65486 | 2633 ft | 17 kts | 148° |
| 2026-05-05 10:02 | -23.63213 | -46.65411 | 2636 ft | 20 kts | 147° |
| 2026-05-05 10:02 | -23.63334 | -46.65326 | 2639 ft | 21 kts | 147° |
| 2026-05-05 10:03 | -23.63458 | -46.65242 | 2643 ft | 21 kts | 149° |
| 2026-05-05 10:03 | -23.63486 | -46.65143 | 2650 ft | 15 kts | 30° |
| 2026-05-05 10:03 | -23.63395 | -46.65142 | 2645 ft | 14 kts | 327° |
| 2026-05-05 10:03 | -23.63266 | -46.65231 | 2641 ft | 48 kts | 327° |
| 2026-05-05 10:04 | -23.62737 | -46.65596 | 2625 ft | 129 kts | 327° |
| 2026-05-05 10:04 | -23.61809 | -46.66233 | 2782 ft | 177 kts | 328° |
| 2026-05-05 10:04 | -23.60736 | -46.66996 | 3702 ft | 185 kts | 326° |
| 2026-05-05 10:04 | -23.59625 | -46.67585 | 4714 ft | 189 kts | 351° |
| 2026-05-05 10:05 | -23.58262 | -46.67229 | 5171 ft | 220 kts | 38° |
| 2026-05-05 10:05 | -23.57419 | -46.65800 | 5642 ft | 237 kts | 75° |
| 2026-05-05 10:05 | -23.57477 | -46.63987 | 5430 ft | 243 kts | 114° |
| 2026-05-05 10:05 | -23.58379 | -46.62472 | 5394 ft | 240 kts | 127° |
| 2026-05-05 10:06 | -23.59247 | -46.60878 | 5318 ft | 254 kts | 113° |
| 2026-05-05 10:06 | -23.59988 | -46.58995 | 5465 ft | 281 kts | 113° |
| 2026-05-05 10:06 | -23.60767 | -46.57057 | 5512 ft | 283 kts | 114° |
| 2026-05-05 10:06 | -23.61720 | -46.55147 | 5530 ft | 285 kts | 130° |
| 2026-05-05 10:07 | -23.63121 | -46.53641 | 6137 ft | 287 kts | 138° |
| 2026-05-05 10:07 | -23.64569 | -46.52162 | 7358 ft | 284 kts | 138° |
| 2026-05-05 10:07 | -23.66017 | -46.50658 | 8479 ft | 284 kts | 138° |
| 2026-05-05 10:07 | -23.67429 | -46.49173 | 9506 ft | 287 kts | 138° |
| 2026-05-05 10:08 | -23.68875 | -46.47646 | 10505 ft | 291 kts | 138° |
| 2026-05-05 10:08 | -23.70329 | -46.46010 | 10986 ft | 315 kts | 128° |
| 2026-05-05 10:08 | -23.71201 | -46.43707 | 11284 ft | 345 kts | 97° |
| 2026-05-05 10:08 | -23.71071 | -46.41056 | 12062 ft | 353 kts | 83° |
| 2026-05-05 10:09 | -23.70679 | -46.38397 | 12953 ft | 357 kts | 81° |
| 2026-05-05 10:09 | -23.70247 | -46.35703 | 13838 ft | 360 kts | 81° |
| 2026-05-05 10:09 | -23.69819 | -46.32997 | 14654 ft | 364 kts | 82° |
| 2026-05-05 10:09 | -23.69399 | -46.30251 | 15351 ft | 370 kts | 82° |
| 2026-05-05 10:10 | -23.68986 | -46.27455 | 16053 ft | 376 kts | 82° |
| 2026-05-05 10:10 | -23.68581 | -46.24654 | 16769 ft | 381 kts | 83° |
| 2026-05-05 10:10 | -23.68169 | -46.21781 | 17482 ft | 386 kts | 83° |
| 2026-05-05 10:10 | -23.67888 | -46.19817 | 17951 ft | 390 kts | 83° |
| 2026-05-05 10:11 | -23.67466 | -46.16868 | 18623 ft | 395 kts | 83° |
| 2026-05-05 10:11 | -23.66899 | -46.12917 | 19454 ft | 400 kts | 83° |
| 2026-05-05 10:11 | -23.66466 | -46.09903 | 20097 ft | 404 kts | 83° |
| 2026-05-05 10:11 | -23.66030 | -46.06864 | 20732 ft | 408 kts | 84° |
| 2026-05-05 10:12 | -23.65732 | -46.04786 | 21144 ft | 410 kts | 84° |
| 2026-05-05 10:12 | -23.65290 | -46.01705 | 21778 ft | 414 kts | 84° |
| 2026-05-05 10:12 | -23.64841 | -45.98582 | 22338 ft | 419 kts | 84° |
| 2026-05-05 10:12 | -23.64391 | -45.95460 | 22935 ft | 423 kts | 84° |
| 2026-05-05 10:13 | -23.63932 | -45.92279 | 23538 ft | 426 kts | 84° |
| 2026-05-05 10:13 | -23.63469 | -45.89070 | 24050 ft | 430 kts | 84° |
| 2026-05-05 10:13 | -23.63000 | -45.85832 | 24510 ft | 435 kts | 84° |
| 2026-05-05 10:13 | -23.62526 | -45.82561 | 24979 ft | 439 kts | 84° |
| 2026-05-05 10:14 | -23.62046 | -45.79256 | 25452 ft | 443 kts | 84° |
| 2026-05-05 10:14 | -23.61559 | -45.75914 | 25923 ft | 447 kts | 84° |
| 2026-05-05 10:14 | -23.61071 | -45.72565 | 26447 ft | 448 kts | 84° |
| 2026-05-05 10:14 | -23.60585 | -45.69237 | 27024 ft | 447 kts | 84° |
| 2026-05-05 10:15 | -23.60094 | -45.65883 | 27178 ft | 450 kts | 84° |
| 2026-05-05 10:15 | -23.59602 | -45.62524 | 27176 ft | 448 kts | 84° |
| 2026-05-05 10:15 | -23.59112 | -45.59177 | 27188 ft | 447 kts | 84° |
| 2026-05-05 10:15 | -23.58622 | -45.55837 | 27196 ft | 446 kts | 84° |
| 2026-05-05 10:16 | -23.58131 | -45.52498 | 27200 ft | 446 kts | 84° |
| 2026-05-05 10:16 | -23.57639 | -45.49153 | 27197 ft | 446 kts | 84° |
| 2026-05-05 10:16 | -23.57120 | -45.45812 | 27198 ft | 447 kts | 82° |
| 2026-05-05 10:16 | -23.56476 | -45.42489 | 27196 ft | 448 kts | 80° |
| 2026-05-05 10:17 | -23.55765 | -45.39180 | 27194 ft | 448 kts | 79° |
| 2026-05-05 10:17 | -23.55034 | -45.35880 | 27196 ft | 448 kts | 79° |
| 2026-05-05 10:17 | -23.54304 | -45.32576 | 27183 ft | 448 kts | 79° |
| 2026-05-05 10:17 | -23.53585 | -45.29276 | 27206 ft | 447 kts | 79° |
| 2026-05-05 10:18 | -23.52883 | -45.26015 | 27190 ft | 448 kts | 79° |
| 2026-05-05 10:18 | -23.52178 | -45.22714 | 27198 ft | 447 kts | 79° |
| 2026-05-05 10:18 | -23.51475 | -45.19406 | 27202 ft | 448 kts | 79° |
| 2026-05-05 10:18 | -23.50770 | -45.16092 | 27183 ft | 447 kts | 79° |
| 2026-05-05 10:19 | -23.50067 | -45.12792 | 27180 ft | 447 kts | 79° |
| 2026-05-05 10:19 | -23.49366 | -45.09504 | 27180 ft | 446 kts | 79° |
| 2026-05-05 10:19 | -23.48662 | -45.06208 | 27172 ft | 445 kts | 79° |
| 2026-05-05 10:19 | -23.47958 | -45.02919 | 27173 ft | 445 kts | 79° |
| 2026-05-05 10:20 | -23.47257 | -44.99644 | 27174 ft | 444 kts | 79° |
| 2026-05-05 10:20 | -23.46555 | -44.96367 | 27176 ft | 444 kts | 79° |
| 2026-05-05 10:20 | -23.45849 | -44.93100 | 27079 ft | 440 kts | 79° |
| 2026-05-05 10:20 | -23.45143 | -44.89905 | 26641 ft | 437 kts | 79° |
| 2026-05-05 10:21 | -23.44428 | -44.86701 | 26119 ft | 434 kts | 79° |
| 2026-05-05 10:21 | -23.43716 | -44.83519 | 25604 ft | 430 kts | 79° |
| 2026-05-05 10:21 | -23.43013 | -44.80374 | 25094 ft | 426 kts | 79° |
| 2026-05-05 10:21 | -23.42314 | -44.77242 | 24552 ft | 424 kts | 79° |
| 2026-05-05 10:22 | -23.41622 | -44.74138 | 24012 ft | 421 kts | 79° |
| 2026-05-05 10:22 | -23.40934 | -44.71051 | 23420 ft | 419 kts | 79° |
| 2026-05-05 10:22 | -23.40247 | -44.67973 | 22834 ft | 415 kts | 79° |
| 2026-05-05 10:22 | -23.39571 | -44.64943 | 22285 ft | 411 kts | 79° |
| 2026-05-05 10:23 | -23.38899 | -44.61936 | 21760 ft | 407 kts | 79° |
| 2026-05-05 10:23 | -23.38232 | -44.58956 | 21232 ft | 403 kts | 78° |
| 2026-05-05 10:23 | -23.37572 | -44.56008 | 20713 ft | 399 kts | 78° |
| 2026-05-05 10:23 | -23.36917 | -44.53085 | 20194 ft | 395 kts | 78° |
| 2026-05-05 10:24 | -23.36268 | -44.50192 | 19680 ft | 392 kts | 78° |
| 2026-05-05 10:24 | -23.35623 | -44.47317 | 19167 ft | 389 kts | 78° |
| 2026-05-05 10:24 | -23.34989 | -44.44496 | 18645 ft | 387 kts | 77° |
| 2026-05-05 10:24 | -23.34319 | -44.41703 | 18058 ft | 376 kts | 72° |
| 2026-05-05 10:25 | -23.33338 | -44.39112 | 17540 ft | 365 kts | 66° |
| 2026-05-05 10:25 | -23.32251 | -44.36657 | 17036 ft | 354 kts | 65° |
| 2026-05-05 10:25 | -23.31175 | -44.34290 | 16561 ft | 344 kts | 65° |
| 2026-05-05 10:25 | -23.30136 | -44.31983 | 16097 ft | 337 kts | 65° |
| 2026-05-05 10:26 | -23.29119 | -44.29687 | 15652 ft | 336 kts | 65° |
| 2026-05-05 10:26 | -23.28105 | -44.27365 | 15208 ft | 346 kts | 66° |
| 2026-05-05 10:26 | -23.27062 | -44.24957 | 14698 ft | 354 kts | 66° |
| 2026-05-05 10:26 | -23.26015 | -44.22534 | 14206 ft | 353 kts | 66° |
| 2026-05-05 10:27 | -23.24985 | -44.20146 | 13670 ft | 352 kts | 66° |
| 2026-05-05 10:27 | -23.23948 | -44.17738 | 13142 ft | 350 kts | 66° |
| 2026-05-05 10:27 | -23.22920 | -44.15353 | 12635 ft | 347 kts | 66° |
| 2026-05-05 10:27 | -23.21901 | -44.12989 | 12141 ft | 344 kts | 66° |
| 2026-05-05 10:28 | -23.20886 | -44.10636 | 11658 ft | 342 kts | 66° |
| 2026-05-05 10:28 | -23.19878 | -44.08304 | 11193 ft | 339 kts | 66° |
| 2026-05-05 10:28 | -23.18858 | -44.06036 | 11018 ft | 329 kts | 65° |
| 2026-05-05 10:28 | -23.17833 | -44.03821 | 10830 ft | 327 kts | 64° |
| 2026-05-05 10:29 | -23.16811 | -44.01614 | 10656 ft | 328 kts | 64° |
| 2026-05-05 10:29 | -23.15782 | -43.99384 | 10484 ft | 330 kts | 65° |
| 2026-05-05 10:29 | -23.14805 | -43.97168 | 10291 ft | 319 kts | 66° |
| 2026-05-05 10:29 | -23.13889 | -43.95020 | 10115 ft | 306 kts | 67° |
| 2026-05-05 10:30 | -23.13018 | -43.92965 | 9945 ft | 294 kts | 67° |
| 2026-05-05 10:30 | -23.12164 | -43.90950 | 9795 ft | 295 kts | 66° |
| 2026-05-05 10:30 | -23.11304 | -43.88922 | 9658 ft | 303 kts | 66° |
| 2026-05-05 10:30 | -23.10413 | -43.86831 | 9501 ft | 306 kts | 66° |
| 2026-05-05 10:31 | -23.09516 | -43.84732 | 9324 ft | 305 kts | 66° |
| 2026-05-05 10:31 | -23.08622 | -43.82642 | 9160 ft | 304 kts | 66° |
| 2026-05-05 10:31 | -23.07730 | -43.80559 | 8994 ft | 304 kts | 66° |
| 2026-05-05 10:31 | -23.06841 | -43.78485 | 8834 ft | 301 kts | 66° |
| 2026-05-05 10:32 | -23.05969 | -43.76450 | 8664 ft | 293 kts | 66° |
| 2026-05-05 10:32 | -23.05113 | -43.74457 | 8513 ft | 290 kts | 66° |
| 2026-05-05 10:32 | -23.04257 | -43.72461 | 8377 ft | 293 kts | 66° |
| 2026-05-05 10:32 | -23.03392 | -43.70447 | 8223 ft | 296 kts | 66° |
| 2026-05-05 10:33 | -23.02512 | -43.68415 | 7959 ft | 298 kts | 66° |
| 2026-05-05 10:33 | -23.01625 | -43.66389 | 7695 ft | 296 kts | 66° |
| 2026-05-05 10:33 | -23.00742 | -43.64374 | 7431 ft | 296 kts | 66° |
| 2026-05-05 10:33 | -22.99871 | -43.62385 | 7185 ft | 293 kts | 66° |
| 2026-05-05 10:34 | -22.99002 | -43.60407 | 7002 ft | 288 kts | 66° |
| 2026-05-05 10:34 | -22.98143 | -43.58456 | 6829 ft | 285 kts | 66° |
| 2026-05-05 10:34 | -22.97290 | -43.56514 | 6673 ft | 285 kts | 66° |
| 2026-05-05 10:34 | -22.96429 | -43.54557 | 6460 ft | 291 kts | 66° |
| 2026-05-05 10:35 | -22.95557 | -43.52575 | 6167 ft | 289 kts | 66° |
| 2026-05-05 10:35 | -22.94696 | -43.50619 | 5935 ft | 287 kts | 66° |
| 2026-05-05 10:35 | -22.93864 | -43.48663 | 5742 ft | 284 kts | 66° |
| 2026-05-05 10:35 | -22.93057 | -43.46745 | 5486 ft | 273 kts | 66° |
| 2026-05-05 10:36 | -22.92277 | -43.44898 | 5251 ft | 266 kts | 66° |
| 2026-05-05 10:36 | -22.91508 | -43.43083 | 5036 ft | 263 kts | 65° |
| 2026-05-05 10:36 | -22.90742 | -43.41274 | 4781 ft | 265 kts | 65° |
| 2026-05-05 10:36 | -22.89971 | -43.39453 | 4539 ft | 266 kts | 64° |
| 2026-05-05 10:37 | -22.89208 | -43.37653 | 4303 ft | 257 kts | 65° |
| 2026-05-05 10:37 | -22.88510 | -43.35959 | 4070 ft | 236 kts | 70° |
| 2026-05-05 10:37 | -22.88349 | -43.34257 | 3784 ft | 223 kts | 94° |
| 2026-05-05 10:37 | -22.88508 | -43.32617 | 3546 ft | 212 kts | 95° |
| 2026-05-05 10:38 | -22.88661 | -43.31054 | 3277 ft | 205 kts | 94° |
| 2026-05-05 10:38 | -22.88807 | -43.29522 | 3029 ft | 204 kts | 94° |
| 2026-05-05 10:38 | -22.88949 | -43.28015 | 2779 ft | 201 kts | 93° |
| 2026-05-05 10:38 | -22.89111 | -43.26518 | 2489 ft | 200 kts | 100° |
| 2026-05-05 10:39 | -22.89673 | -43.25114 | 2145 ft | 199 kts | 116° |
| 2026-05-05 10:39 | -22.90291 | -43.23792 | 1823 ft | 198 kts | 115° |
| 2026-05-05 10:39 | -22.90898 | -43.22459 | 1483 ft | 196 kts | 115° |
| 2026-05-05 10:39 | -22.91493 | -43.21141 | 1256 ft | 195 kts | 114° |
| 2026-05-05 10:40 | -22.92093 | -43.19812 | 1228 ft | 198 kts | 126° |
| 2026-05-05 10:40 | -22.93211 | -43.18999 | 1224 ft | 188 kts | 153° |
| 2026-05-05 10:40 | -22.94364 | -43.18384 | 914 ft | 178 kts | 148° |
| 2026-05-05 10:40 | -22.94921 | -43.17377 | 643 ft | 155 kts | 83° |
| 2026-05-05 10:41 | -22.94433 | -43.16483 | 444 ft | 132 kts | 27° |
| 2026-05-05 10:41 | -22.93565 | -43.16183 | 433 ft | 132 kts | 12° |
| 2026-05-05 10:41 | -22.92620 | -43.16191 | 282 ft | 136 kts | 354° |
| 2026-05-05 10:41 | -22.91686 | -43.16238 | 56 ft | 133 kts | 356° |
| 2026-05-05 10:42 | -22.90855 | -43.16295 | 26 ft | 15 kts | 356° |
| 2026-05-05 10:42 | -22.90806 | -43.16350 | 27 ft | 16 kts | 265° |
| 2026-05-05 10:42 | -22.90811 | -43.16438 | 28 ft | 9 kts | 267° |
| 2026-05-05 10:43 | -22.90816 | -43.16505 | 29 ft | 9 kts | 261° |
| 2026-05-05 10:43 | -22.90855 | -43.16551 | 29 ft | 11 kts | 176° |
| 2026-05-05 10:43 | -22.90939 | -43.16545 | 29 ft | 13 kts | 176° |
| 2026-05-05 10:43 | -22.91028 | -43.16538 | 29 ft | 13 kts | 175° |
| 2026-05-05 10:44 | -22.91136 | -43.16519 | 29 ft | 21 kts | 172° |
| 2026-05-05 10:44 | -22.91260 | -43.16508 | 29 ft | 11 kts | 176° |
| 2026-05-05 10:44 | -22.91326 | -43.16504 | 28 ft | 9 kts | 177° |
| 2026-05-05 10:44 | -22.91354 | -43.16542 | 29 ft | 7 kts | 266° |
| 2026-05-05 10:45 | -22.91356 | -43.16572 | 29 ft | 0 kts | 266° |